sensor_id;sensor_type;location;lat;lon;timestamp;P1;durP1;ratioP1;P2;durP2;ratioP2
9860;SDS011;4969;52.304;4.968;2023-03-23T00:02:11;16.95;;;14.57;;
9860;SDS011;4969;52.304;4.968;2023-03-23T00:04:39;21.77;;;17.90;;
9860;SDS011;4969;52.304;4.968;2023-03-23T00:07:07;8.63;;;7.25;;
9860;SDS011;4969;52.304;4.968;2023-03-23T00:09:34;10.88;;;8.70;;
9860;SDS011;4969;52.304;4.968;2023-03-23T00:12:06;9.13;;;7.55;;
9860;SDS011;4969;52.304;4.968;2023-03-23T00:14:33;18.52;;;14.98;;
9860;SDS011;4969;52.304;4.968;2023-03-23T00:17:06;12.43;;;9.65;;
9860;SDS011;4969;52.304;4.968;2023-03-23T00:19:34;11.48;;;7.28;;
9860;SDS011;4969;52.304;4.968;2023-03-23T00:22:13;26.70;;;20.92;;
9860;SDS011;4969;52.304;4.968;2023-03-23T00:24:40;15.68;;;13.35;;
9860;SDS011;4969;52.304;4.968;2023-03-23T00:27:07;10.82;;;8.68;;
9860;SDS011;4969;52.304;4.968;2023-03-23T00:29:37;11.27;;;7.80;;
9860;SDS011;4969;52.304;4.968;2023-03-23T00:32:04;16.60;;;14.50;;
9860;SDS011;4969;52.304;4.968;2023-03-23T00:34:31;14.75;;;10.55;;
9860;SDS011;4969;52.304;4.968;2023-03-23T00:36:59;11.93;;;8.52;;
9860;SDS011;4969;52.304;4.968;2023-03-23T00:39:27;18.02;;;16.00;;
9860;SDS011;4969;52.304;4.968;2023-03-23T00:41:54;19.92;;;15.57;;
9860;SDS011;4969;52.304;4.968;2023-03-23T00:44:25;10.10;;;8.25;;
9860;SDS011;4969;52.304;4.968;2023-03-23T00:46:53;9.48;;;7.63;;
9860;SDS011;4969;52.304;4.968;2023-03-23T00:49:21;12.73;;;10.98;;
9860;SDS011;4969;52.304;4.968;2023-03-23T00:51:50;15.02;;;13.00;;
9860;SDS011;4969;52.304;4.968;2023-03-23T00:54:17;5.15;;;3.83;;
9860;SDS011;4969;52.304;4.968;2023-03-23T00:56:45;13.40;;;11.85;;
9860;SDS011;4969;52.304;4.968;2023-03-23T00:59:11;19.17;;;14.43;;
9860;SDS011;4969;52.304;4.968;2023-03-23T01:01:38;19.58;;;14.88;;
9860;SDS011;4969;52.304;4.968;2023-03-23T01:04:05;20.05;;;16.00;;
9860;SDS011;4969;52.304;4.968;2023-03-23T01:06:33;21.98;;;15.85;;
9860;SDS011;4969;52.304;4.968;2023-03-23T01:09:04;10.98;;;7.97;;
9860;SDS011;4969;52.304;4.968;2023-03-23T01:11:31;7.50;;;6.43;;
9860;SDS011;4969;52.304;4.968;2023-03-23T01:13:59;17.05;;;15.27;;
9860;SDS011;4969;52.304;4.968;2023-03-23T01:16:26;22.77;;;17.75;;
9860;SDS011;4969;52.304;4.968;2023-03-23T01:18:53;13.32;;;10.68;;
9860;SDS011;4969;52.304;4.968;2023-03-23T01:21:20;22.40;;;18.85;;
9860;SDS011;4969;52.304;4.968;2023-03-23T01:23:47;14.75;;;13.18;;
9860;SDS011;4969;52.304;4.968;2023-03-23T01:26:15;8.52;;;6.30;;
9860;SDS011;4969;52.304;4.968;2023-03-23T01:28:44;17.55;;;14.98;;
9860;SDS011;4969;52.304;4.968;2023-03-23T01:31:13;21.15;;;18.15;;
9860;SDS011;4969;52.304;4.968;2023-03-23T01:33:41;8.57;;;7.68;;
9860;SDS011;4969;52.304;4.968;2023-03-23T01:36:10;9.85;;;8.18;;
9860;SDS011;4969;52.304;4.968;2023-03-23T01:38:38;15.88;;;12.75;;
9860;SDS011;4969;52.304;4.968;2023-03-23T01:41:05;13.95;;;10.85;;
9860;SDS011;4969;52.304;4.968;2023-03-23T01:43:31;20.60;;;17.52;;
9860;SDS011;4969;52.304;4.968;2023-03-23T01:45:58;10.60;;;8.52;;
9860;SDS011;4969;52.304;4.968;2023-03-23T01:48:27;19.63;;;14.75;;
9860;SDS011;4969;52.304;4.968;2023-03-23T01:50:56;13.82;;;12.38;;
9860;SDS011;4969;52.304;4.968;2023-03-23T01:53:26;9.75;;;8.52;;
9860;SDS011;4969;52.304;4.968;2023-03-23T01:55:56;13.73;;;12.38;;
9860;SDS011;4969;52.304;4.968;2023-03-23T01:58:26;9.55;;;7.43;;
9860;SDS011;4969;52.304;4.968;2023-03-23T02:00:55;9.18;;;8.15;;
9860;SDS011;4969;52.304;4.968;2023-03-23T02:03:27;19.27;;;16.63;;
9860;SDS011;4969;52.304;4.968;2023-03-23T02:05:54;13.13;;;10.63;;
9860;SDS011;4969;52.304;4.968;2023-03-23T02:08:23;5.53;;;4.50;;
9860;SDS011;4969;52.304;4.968;2023-03-23T02:10:53;17.95;;;15.10;;
9860;SDS011;4969;52.304;4.968;2023-03-23T02:13:20;12.52;;;9.65;;
9860;SDS011;4969;52.304;4.968;2023-03-23T02:15:48;16.13;;;13.35;;
9860;SDS011;4969;52.304;4.968;2023-03-23T02:18:34;14.23;;;12.13;;
9860;SDS011;4969;52.304;4.968;2023-03-23T02:27:14;2.53;;;2.10;;
9860;SDS011;4969;52.304;4.968;2023-03-23T02:29:48;11.40;;;9.63;;
9860;SDS011;4969;52.304;4.968;2023-03-23T02:32:26;13.57;;;12.15;;
9860;SDS011;4969;52.304;4.968;2023-03-23T02:35:08;4.40;;;3.17;;
9860;SDS011;4969;52.304;4.968;2023-03-23T02:37:39;6.40;;;5.57;;
9860;SDS011;4969;52.304;4.968;2023-03-23T02:40:13;10.63;;;8.90;;
9860;SDS011;4969;52.304;4.968;2023-03-23T02:42:45;11.70;;;10.43;;
9860;SDS011;4969;52.304;4.968;2023-03-23T02:45:16;5.68;;;4.05;;
9860;SDS011;4969;52.304;4.968;2023-03-23T02:47:45;4.95;;;3.55;;
9860;SDS011;4969;52.304;4.968;2023-03-23T02:50:15;10.60;;;8.85;;
9860;SDS011;4969;52.304;4.968;2023-03-23T02:52:45;9.65;;;8.23;;
9860;SDS011;4969;52.304;4.968;2023-03-23T02:55:14;7.63;;;5.80;;
9860;SDS011;4969;52.304;4.968;2023-03-23T02:57:41;10.20;;;8.38;;
9860;SDS011;4969;52.304;4.968;2023-03-23T03:00:11;6.97;;;5.60;;
9860;SDS011;4969;52.304;4.968;2023-03-23T03:02:40;10.55;;;7.95;;
9860;SDS011;4969;52.304;4.968;2023-03-23T03:05:09;8.13;;;6.45;;
9860;SDS011;4969;52.304;4.968;2023-03-23T03:07:52;8.40;;;6.97;;
9860;SDS011;4969;52.304;4.968;2023-03-23T03:10:27;10.23;;;7.90;;
9860;SDS011;4969;52.304;4.968;2023-03-23T03:13:01;9.38;;;7.97;;
9860;SDS011;4969;52.304;4.968;2023-03-23T03:15:33;8.50;;;6.32;;
9860;SDS011;4969;52.304;4.968;2023-03-23T03:18:04;6.15;;;3.92;;
9860;SDS011;4969;52.304;4.968;2023-03-23T03:20:40;7.80;;;5.88;;
9860;SDS011;4969;52.304;4.968;2023-03-23T03:23:11;9.90;;;6.35;;
9860;SDS011;4969;52.304;4.968;2023-03-23T03:25:39;6.20;;;4.57;;
9860;SDS011;4969;52.304;4.968;2023-03-23T03:28:07;5.88;;;4.90;;
9860;SDS011;4969;52.304;4.968;2023-03-23T03:30:35;8.38;;;4.82;;
9860;SDS011;4969;52.304;4.968;2023-03-23T03:33:04;10.43;;;8.55;;
9860;SDS011;4969;52.304;4.968;2023-03-23T03:35:31;11.23;;;8.70;;
9860;SDS011;4969;52.304;4.968;2023-03-23T03:38:06;5.68;;;2.70;;
9860;SDS011;4969;52.304;4.968;2023-03-23T03:40:33;10.70;;;7.75;;
9860;SDS011;4969;52.304;4.968;2023-03-23T03:43:00;4.88;;;2.20;;
9860;SDS011;4969;52.304;4.968;2023-03-23T03:45:28;9.65;;;5.93;;
9860;SDS011;4969;52.304;4.968;2023-03-23T03:47:55;7.20;;;3.47;;
9860;SDS011;4969;52.304;4.968;2023-03-23T03:50:21;10.83;;;8.50;;
9860;SDS011;4969;52.304;4.968;2023-03-23T03:52:48;5.80;;;2.50;;
9860;SDS011;4969;52.304;4.968;2023-03-23T03:55:16;9.20;;;5.07;;
9860;SDS011;4969;52.304;4.968;2023-03-23T03:57:43;8.83;;;4.47;;
9860;SDS011;4969;52.304;4.968;2023-03-23T04:00:10;6.50;;;2.53;;
9860;SDS011;4969;52.304;4.968;2023-03-23T04:02:39;8.07;;;4.43;;
9860;SDS011;4969;52.304;4.968;2023-03-23T04:05:07;9.38;;;7.22;;
9860;SDS011;4969;52.304;4.968;2023-03-23T04:07:35;5.72;;;3.10;;
9860;SDS011;4969;52.304;4.968;2023-03-23T04:10:04;5.63;;;3.63;;
9860;SDS011;4969;52.304;4.968;2023-03-23T04:12:33;5.75;;;3.55;;
9860;SDS011;4969;52.304;4.968;2023-03-23T04:15:00;9.88;;;6.50;;
9860;SDS011;4969;52.304;4.968;2023-03-23T04:17:27;6.30;;;4.10;;
9860;SDS011;4969;52.304;4.968;2023-03-23T04:19:54;7.05;;;4.65;;
9860;SDS011;4969;52.304;4.968;2023-03-23T04:22:22;6.88;;;4.10;;
9860;SDS011;4969;52.304;4.968;2023-03-23T04:24:55;6.90;;;5.10;;
9860;SDS011;4969;52.304;4.968;2023-03-23T04:27:23;7.18;;;4.53;;
9860;SDS011;4969;52.304;4.968;2023-03-23T04:29:54;6.78;;;3.55;;
9860;SDS011;4969;52.304;4.968;2023-03-23T04:32:23;6.50;;;4.30;;
9860;SDS011;4969;52.304;4.968;2023-03-23T04:34:53;4.85;;;3.35;;
9860;SDS011;4969;52.304;4.968;2023-03-23T04:37:21;4.93;;;3.25;;
9860;SDS011;4969;52.304;4.968;2023-03-23T04:39:51;5.00;;;3.03;;
9860;SDS011;4969;52.304;4.968;2023-03-23T04:42:25;5.05;;;3.15;;
9860;SDS011;4969;52.304;4.968;2023-03-23T04:44:55;6.88;;;2.60;;
9860;SDS011;4969;52.304;4.968;2023-03-23T04:47:21;10.00;;;4.53;;
9860;SDS011;4969;52.304;4.968;2023-03-23T04:49:48;8.83;;;4.63;;
9860;SDS011;4969;52.304;4.968;2023-03-23T04:52:15;7.23;;;3.63;;
9860;SDS011;4969;52.304;4.968;2023-03-23T04:54:42;7.60;;;3.63;;
9860;SDS011;4969;52.304;4.968;2023-03-23T04:57:09;8.83;;;4.20;;
9860;SDS011;4969;52.304;4.968;2023-03-23T04:59:37;10.60;;;4.60;;
9860;SDS011;4969;52.304;4.968;2023-03-23T05:02:05;8.30;;;4.70;;
9860;SDS011;4969;52.304;4.968;2023-03-23T05:04:31;9.63;;;3.83;;
9860;SDS011;4969;52.304;4.968;2023-03-23T05:06:58;12.13;;;3.53;;
9860;SDS011;4969;52.304;4.968;2023-03-23T05:09:25;11.33;;;5.03;;
9860;SDS011;4969;52.304;4.968;2023-03-23T05:11:52;10.20;;;5.63;;
9860;SDS011;4969;52.304;4.968;2023-03-23T05:14:18;11.47;;;4.53;;
9860;SDS011;4969;52.304;4.968;2023-03-23T05:16:46;11.03;;;5.63;;
9860;SDS011;4969;52.304;4.968;2023-03-23T05:19:15;10.20;;;3.13;;
9860;SDS011;4969;52.304;4.968;2023-03-23T05:21:41;13.80;;;5.10;;
9860;SDS011;4969;52.304;4.968;2023-03-23T05:24:09;12.60;;;5.07;;
9860;SDS011;4969;52.304;4.968;2023-03-23T05:26:36;9.43;;;3.50;;
9860;SDS011;4969;52.304;4.968;2023-03-23T05:29:02;11.00;;;4.07;;
9860;SDS011;4969;52.304;4.968;2023-03-23T05:31:29;9.33;;;4.10;;
9860;SDS011;4969;52.304;4.968;2023-03-23T05:33:55;10.80;;;5.23;;
9860;SDS011;4969;52.304;4.968;2023-03-23T05:36:23;8.95;;;3.25;;
9860;SDS011;4969;52.304;4.968;2023-03-23T05:38:50;15.57;;;4.63;;
9860;SDS011;4969;52.304;4.968;2023-03-23T05:41:17;15.03;;;4.53;;
9860;SDS011;4969;52.304;4.968;2023-03-23T05:43:43;11.83;;;3.77;;
9860;SDS011;4969;52.304;4.968;2023-03-23T05:46:10;11.80;;;3.67;;
9860;SDS011;4969;52.304;4.968;2023-03-23T05:48:36;12.45;;;3.95;;
9860;SDS011;4969;52.304;4.968;2023-03-23T05:51:03;12.80;;;4.13;;
9860;SDS011;4969;52.304;4.968;2023-03-23T05:53:31;9.60;;;3.93;;
9860;SDS011;4969;52.304;4.968;2023-03-23T05:55:58;14.53;;;5.13;;
9860;SDS011;4969;52.304;4.968;2023-03-23T05:58:26;12.27;;;4.97;;
9860;SDS011;4969;52.304;4.968;2023-03-23T06:00:52;10.13;;;4.10;;
9860;SDS011;4969;52.304;4.968;2023-03-23T06:03:20;12.70;;;4.13;;
9860;SDS011;4969;52.304;4.968;2023-03-23T06:05:47;14.20;;;4.47;;
9860;SDS011;4969;52.304;4.968;2023-03-23T06:08:15;13.57;;;4.10;;
9860;SDS011;4969;52.304;4.968;2023-03-23T06:10:43;15.07;;;5.13;;
9860;SDS011;4969;52.304;4.968;2023-03-23T06:13:10;16.40;;;4.23;;
9860;SDS011;4969;52.304;4.968;2023-03-23T06:15:36;13.77;;;4.10;;
9860;SDS011;4969;52.304;4.968;2023-03-23T06:18:03;12.13;;;4.87;;
9860;SDS011;4969;52.304;4.968;2023-03-23T06:20:30;13.87;;;4.30;;
9860;SDS011;4969;52.304;4.968;2023-03-23T06:22:57;14.00;;;5.63;;
9860;SDS011;4969;52.304;4.968;2023-03-23T06:25:24;18.03;;;4.53;;
9860;SDS011;4969;52.304;4.968;2023-03-23T06:27:52;18.20;;;4.90;;
9860;SDS011;4969;52.304;4.968;2023-03-23T06:30:20;16.20;;;4.50;;
9860;SDS011;4969;52.304;4.968;2023-03-23T06:32:46;15.70;;;5.50;;
9860;SDS011;4969;52.304;4.968;2023-03-23T06:35:14;16.87;;;6.80;;
9860;SDS011;4969;52.304;4.968;2023-03-23T06:37:41;15.60;;;5.23;;
9860;SDS011;4969;52.304;4.968;2023-03-23T06:40:08;15.27;;;4.50;;
9860;SDS011;4969;52.304;4.968;2023-03-23T06:42:35;18.33;;;4.63;;
9860;SDS011;4969;52.304;4.968;2023-03-23T06:45:04;19.67;;;5.43;;
9860;SDS011;4969;52.304;4.968;2023-03-23T06:47:32;14.47;;;4.70;;
9860;SDS011;4969;52.304;4.968;2023-03-23T06:49:59;17.20;;;5.10;;
9860;SDS011;4969;52.304;4.968;2023-03-23T06:52:25;22.77;;;5.83;;
9860;SDS011;4969;52.304;4.968;2023-03-23T06:54:52;17.80;;;4.97;;
9860;SDS011;4969;52.304;4.968;2023-03-23T06:57:19;15.27;;;4.90;;
9860;SDS011;4969;52.304;4.968;2023-03-23T06:59:46;19.43;;;4.97;;
9860;SDS011;4969;52.304;4.968;2023-03-23T07:02:14;17.67;;;4.93;;
9860;SDS011;4969;52.304;4.968;2023-03-23T07:04:41;16.90;;;6.30;;
9860;SDS011;4969;52.304;4.968;2023-03-23T07:07:08;16.90;;;5.53;;
9860;SDS011;4969;52.304;4.968;2023-03-23T07:09:36;18.63;;;5.63;;
9860;SDS011;4969;52.304;4.968;2023-03-23T07:12:02;19.83;;;4.67;;
9860;SDS011;4969;52.304;4.968;2023-03-23T07:14:29;15.40;;;6.87;;
9860;SDS011;4969;52.304;4.968;2023-03-23T07:16:56;17.03;;;4.93;;
9860;SDS011;4969;52.304;4.968;2023-03-23T07:19:24;15.00;;;5.43;;
9860;SDS011;4969;52.304;4.968;2023-03-23T07:21:51;15.87;;;5.10;;
9860;SDS011;4969;52.304;4.968;2023-03-23T07:24:17;20.90;;;8.33;;
9860;SDS011;4969;52.304;4.968;2023-03-23T07:26:44;16.70;;;5.53;;
9860;SDS011;4969;52.304;4.968;2023-03-23T07:29:11;18.50;;;5.03;;
9860;SDS011;4969;52.304;4.968;2023-03-23T07:31:37;18.27;;;5.60;;
9860;SDS011;4969;52.304;4.968;2023-03-23T07:34:04;16.47;;;5.60;;
9860;SDS011;4969;52.304;4.968;2023-03-23T07:36:32;17.67;;;4.37;;
9860;SDS011;4969;52.304;4.968;2023-03-23T07:39:02;16.97;;;4.83;;
9860;SDS011;4969;52.304;4.968;2023-03-23T07:41:30;16.77;;;5.20;;
9860;SDS011;4969;52.304;4.968;2023-03-23T07:43:56;16.63;;;4.63;;
9860;SDS011;4969;52.304;4.968;2023-03-23T07:46:23;16.93;;;4.90;;
9860;SDS011;4969;52.304;4.968;2023-03-23T07:48:50;15.57;;;6.20;;
9860;SDS011;4969;52.304;4.968;2023-03-23T07:51:17;15.57;;;5.00;;
9860;SDS011;4969;52.304;4.968;2023-03-23T07:53:45;17.13;;;4.17;;
9860;SDS011;4969;52.304;4.968;2023-03-23T07:56:12;13.07;;;5.27;;
9860;SDS011;4969;52.304;4.968;2023-03-23T07:58:39;17.17;;;5.27;;
9860;SDS011;4969;52.304;4.968;2023-03-23T08:01:06;14.77;;;4.30;;
9860;SDS011;4969;52.304;4.968;2023-03-23T08:03:33;14.17;;;3.83;;
9860;SDS011;4969;52.304;4.968;2023-03-23T08:06:00;14.13;;;3.80;;
9860;SDS011;4969;52.304;4.968;2023-03-23T08:08:26;9.77;;;3.33;;
9860;SDS011;4969;52.304;4.968;2023-03-23T08:10:54;14.30;;;4.00;;
9860;SDS011;4969;52.304;4.968;2023-03-23T08:13:21;12.33;;;4.63;;
9860;SDS011;4969;52.304;4.968;2023-03-23T08:15:47;14.47;;;5.27;;
9860;SDS011;4969;52.304;4.968;2023-03-23T08:18:15;12.70;;;3.90;;
9860;SDS011;4969;52.304;4.968;2023-03-23T08:20:42;13.50;;;4.20;;
9860;SDS011;4969;52.304;4.968;2023-03-23T08:23:09;14.47;;;4.93;;
9860;SDS011;4969;52.304;4.968;2023-03-23T08:25:36;10.30;;;6.10;;
9860;SDS011;4969;52.304;4.968;2023-03-23T08:28:05;12.17;;;4.10;;
9860;SDS011;4969;52.304;4.968;2023-03-23T08:30:31;12.70;;;4.27;;
9860;SDS011;4969;52.304;4.968;2023-03-23T08:32:59;13.88;;;4.18;;
9860;SDS011;4969;52.304;4.968;2023-03-23T08:35:26;8.63;;;3.03;;
9860;SDS011;4969;52.304;4.968;2023-03-23T08:37:53;12.63;;;4.23;;
9860;SDS011;4969;52.304;4.968;2023-03-23T08:40:20;13.57;;;3.95;;
9860;SDS011;4969;52.304;4.968;2023-03-23T08:42:49;11.05;;;4.47;;
9860;SDS011;4969;52.304;4.968;2023-03-23T08:45:19;11.15;;;3.72;;
9860;SDS011;4969;52.304;4.968;2023-03-23T08:47:47;11.70;;;4.63;;
9860;SDS011;4969;52.304;4.968;2023-03-23T08:50:17;16.17;;;4.90;;
9860;SDS011;4969;52.304;4.968;2023-03-23T08:52:47;7.88;;;3.88;;
9860;SDS011;4969;52.304;4.968;2023-03-23T08:55:15;9.82;;;3.55;;
9860;SDS011;4969;52.304;4.968;2023-03-23T08:57:42;13.30;;;3.90;;
9860;SDS011;4969;52.304;4.968;2023-03-23T09:00:11;11.57;;;4.30;;
9860;SDS011;4969;52.304;4.968;2023-03-23T09:02:44;13.10;;;4.47;;
9860;SDS011;4969;52.304;4.968;2023-03-23T09:05:12;16.97;;;5.40;;
9860;SDS011;4969;52.304;4.968;2023-03-23T09:07:40;19.08;;;11.23;;
9860;SDS011;4969;52.304;4.968;2023-03-23T09:10:08;18.90;;;9.05;;
9860;SDS011;4969;52.304;4.968;2023-03-23T09:12:35;16.20;;;8.43;;
9860;SDS011;4969;52.304;4.968;2023-03-23T09:15:07;13.40;;;5.47;;
9860;SDS011;4969;52.304;4.968;2023-03-23T09:17:35;16.13;;;7.85;;
9860;SDS011;4969;52.304;4.968;2023-03-23T09:20:04;19.60;;;7.10;;
9860;SDS011;4969;52.304;4.968;2023-03-23T09:22:35;12.55;;;5.40;;
9860;SDS011;4969;52.304;4.968;2023-03-23T09:25:03;21.05;;;12.88;;
9860;SDS011;4969;52.304;4.968;2023-03-23T09:27:30;29.90;;;16.90;;
9860;SDS011;4969;52.304;4.968;2023-03-23T09:29:57;33.78;;;17.80;;
9860;SDS011;4969;52.304;4.968;2023-03-23T09:32:25;40.75;;;26.13;;
9860;SDS011;4969;52.304;4.968;2023-03-23T09:34:52;18.95;;;6.38;;
9860;SDS011;4969;52.304;4.968;2023-03-23T09:37:22;24.73;;;15.38;;
9860;SDS011;4969;52.304;4.968;2023-03-23T09:39:48;15.60;;;5.88;;
9860;SDS011;4969;52.304;4.968;2023-03-23T09:42:18;22.75;;;12.13;;
9860;SDS011;4969;52.304;4.968;2023-03-23T09:45:01;28.15;;;12.93;;
9860;SDS011;4969;52.304;4.968;2023-03-23T09:47:37;23.40;;;11.15;;
9860;SDS011;4969;52.304;4.968;2023-03-23T09:50:10;18.00;;;9.18;;
9860;SDS011;4969;52.304;4.968;2023-03-23T09:52:43;26.33;;;14.68;;
9860;SDS011;4969;52.304;4.968;2023-03-23T09:55:14;15.00;;;4.18;;
9860;SDS011;4969;52.304;4.968;2023-03-23T09:57:44;24.65;;;15.75;;
9860;SDS011;4969;52.304;4.968;2023-03-23T10:00:18;15.25;;;4.85;;
9860;SDS011;4969;52.304;4.968;2023-03-23T10:02:52;30.10;;;15.32;;
9860;SDS011;4969;52.304;4.968;2023-03-23T10:05:26;18.38;;;5.30;;
9860;SDS011;4969;52.304;4.968;2023-03-23T10:07:58;15.90;;;5.88;;
9860;SDS011;4969;52.304;4.968;2023-03-23T10:10:29;17.45;;;6.32;;
9860;SDS011;4969;52.304;4.968;2023-03-23T10:13:04;25.73;;;12.32;;
9860;SDS011;4969;52.304;4.968;2023-03-23T10:15:36;18.02;;;5.30;;
9860;SDS011;4969;52.304;4.968;2023-03-23T10:18:10;22.73;;;9.27;;
9860;SDS011;4969;52.304;4.968;2023-03-23T10:20:42;16.10;;;4.32;;
9860;SDS011;4969;52.304;4.968;2023-03-23T10:23:22;15.23;;;6.88;;
9860;SDS011;4969;52.304;4.968;2023-03-23T10:26:03;20.73;;;7.88;;
9860;SDS011;4969;52.304;4.968;2023-03-23T10:28:35;13.52;;;4.55;;
9860;SDS011;4969;52.304;4.968;2023-03-23T10:31:03;21.67;;;8.00;;
9860;SDS011;4969;52.304;4.968;2023-03-23T10:33:34;21.42;;;10.32;;
9860;SDS011;4969;52.304;4.968;2023-03-23T10:36:08;27.60;;;15.43;;
9860;SDS011;4969;52.304;4.968;2023-03-23T10:38:40;20.33;;;11.65;;
9860;SDS011;4969;52.304;4.968;2023-03-23T10:41:10;16.73;;;7.43;;
9860;SDS011;4969;52.304;4.968;2023-03-23T10:43:39;27.92;;;15.48;;
9860;SDS011;4969;52.304;4.968;2023-03-23T10:46:10;23.10;;;11.35;;
9860;SDS011;4969;52.304;4.968;2023-03-23T10:48:43;14.20;;;4.78;;
9860;SDS011;4969;52.304;4.968;2023-03-23T10:51:13;18.15;;;6.97;;
9860;SDS011;4969;52.304;4.968;2023-03-23T10:53:49;16.08;;;6.78;;
9860;SDS011;4969;52.304;4.968;2023-03-23T10:56:22;17.02;;;5.95;;
9860;SDS011;4969;52.304;4.968;2023-03-23T10:58:50;18.77;;;7.07;;
9860;SDS011;4969;52.304;4.968;2023-03-23T11:01:18;22.55;;;8.82;;
9860;SDS011;4969;52.304;4.968;2023-03-23T11:03:47;17.10;;;6.88;;
9860;SDS011;4969;52.304;4.968;2023-03-23T11:06:20;19.15;;;11.38;;
9860;SDS011;4969;52.304;4.968;2023-03-23T11:08:51;17.75;;;8.73;;
9860;SDS011;4969;52.304;4.968;2023-03-23T11:11:21;14.60;;;7.85;;
9860;SDS011;4969;52.304;4.968;2023-03-23T11:13:56;18.95;;;6.57;;
9860;SDS011;4969;52.304;4.968;2023-03-23T11:16:24;15.68;;;5.68;;
9860;SDS011;4969;52.304;4.968;2023-03-23T11:18:52;16.55;;;6.55;;
9860;SDS011;4969;52.304;4.968;2023-03-23T11:21:20;11.70;;;4.43;;
9860;SDS011;4969;52.304;4.968;2023-03-23T11:23:50;15.00;;;4.80;;
9860;SDS011;4969;52.304;4.968;2023-03-23T11:26:20;13.18;;;5.35;;
9860;SDS011;4969;52.304;4.968;2023-03-23T11:28:51;13.02;;;5.20;;
9860;SDS011;4969;52.304;4.968;2023-03-23T11:31:21;12.82;;;4.75;;
9860;SDS011;4969;52.304;4.968;2023-03-23T11:33:50;15.18;;;4.72;;
9860;SDS011;4969;52.304;4.968;2023-03-23T11:36:19;17.13;;;5.45;;
9860;SDS011;4969;52.304;4.968;2023-03-23T11:38:51;17.98;;;5.75;;
9860;SDS011;4969;52.304;4.968;2023-03-23T11:41:23;14.38;;;5.53;;
9860;SDS011;4969;52.304;4.968;2023-03-23T11:43:51;18.77;;;5.57;;
9860;SDS011;4969;52.304;4.968;2023-03-23T11:46:24;17.88;;;5.07;;
9860;SDS011;4969;52.304;4.968;2023-03-23T11:49:00;21.15;;;4.65;;
9860;SDS011;4969;52.304;4.968;2023-03-23T11:51:30;7.85;;;3.97;;
9860;SDS011;4969;52.304;4.968;2023-03-23T11:54:07;9.15;;;3.55;;
9860;SDS011;4969;52.304;4.968;2023-03-23T11:56:39;9.70;;;4.32;;
9860;SDS011;4969;52.304;4.968;2023-03-23T11:59:09;13.50;;;4.35;;
9860;SDS011;4969;52.304;4.968;2023-03-23T12:01:43;12.23;;;3.88;;
9860;SDS011;4969;52.304;4.968;2023-03-23T12:07:20;11.98;;;3.42;;
9860;SDS011;4969;52.304;4.968;2023-03-23T12:09:57;16.42;;;4.50;;
9860;SDS011;4969;52.304;4.968;2023-03-23T12:12:33;12.00;;;4.35;;
9860;SDS011;4969;52.304;4.968;2023-03-23T12:15:10;12.77;;;4.40;;
9860;SDS011;4969;52.304;4.968;2023-03-23T12:17:49;12.70;;;3.95;;
9860;SDS011;4969;52.304;4.968;2023-03-23T12:20:26;13.20;;;4.13;;
9860;SDS011;4969;52.304;4.968;2023-03-23T12:23:05;13.50;;;4.35;;
9860;SDS011;4969;52.304;4.968;2023-03-23T12:25:51;9.93;;;3.70;;
9860;SDS011;4969;52.304;4.968;2023-03-23T12:28:31;12.35;;;3.60;;
9860;SDS011;4969;52.304;4.968;2023-03-23T12:31:09;17.08;;;4.30;;
9860;SDS011;4969;52.304;4.968;2023-03-23T12:33:42;13.52;;;3.85;;
9860;SDS011;4969;52.304;4.968;2023-03-23T12:36:24;11.45;;;3.22;;
9860;SDS011;4969;52.304;4.968;2023-03-23T12:39:04;10.27;;;3.38;;
9860;SDS011;4969;52.304;4.968;2023-03-23T12:41:44;14.68;;;4.40;;
9860;SDS011;4969;52.304;4.968;2023-03-23T12:44:16;10.85;;;3.30;;
9860;SDS011;4969;52.304;4.968;2023-03-23T12:49:50;12.13;;;4.78;;
9860;SDS011;4969;52.304;4.968;2023-03-23T12:52:22;9.80;;;3.13;;
9860;SDS011;4969;52.304;4.968;2023-03-23T12:54:54;11.23;;;4.20;;
9860;SDS011;4969;52.304;4.968;2023-03-23T12:57:31;10.25;;;3.83;;
9860;SDS011;4969;52.304;4.968;2023-03-23T13:00:03;11.27;;;3.45;;
9860;SDS011;4969;52.304;4.968;2023-03-23T13:02:39;8.98;;;3.42;;
9860;SDS011;4969;52.304;4.968;2023-03-23T13:05:09;8.35;;;3.65;;
9860;SDS011;4969;52.304;4.968;2023-03-23T13:07:54;11.80;;;6.07;;
9860;SDS011;4969;52.304;4.968;2023-03-23T13:10:27;9.70;;;3.05;;
9860;SDS011;4969;52.304;4.968;2023-03-23T13:12:59;9.32;;;3.92;;
9860;SDS011;4969;52.304;4.968;2023-03-23T13:15:31;10.35;;;4.40;;
9860;SDS011;4969;52.304;4.968;2023-03-23T13:18:05;8.70;;;3.85;;
9860;SDS011;4969;52.304;4.968;2023-03-23T13:20:45;7.15;;;3.92;;
9860;SDS011;4969;52.304;4.968;2023-03-23T13:23:20;12.65;;;3.30;;
9860;SDS011;4969;52.304;4.968;2023-03-23T13:25:49;13.70;;;3.95;;
9860;SDS011;4969;52.304;4.968;2023-03-23T13:28:20;10.73;;;3.25;;
9860;SDS011;4969;52.304;4.968;2023-03-23T13:30:55;9.48;;;4.22;;
9860;SDS011;4969;52.304;4.968;2023-03-23T13:33:23;8.07;;;3.88;;
9860;SDS011;4969;52.304;4.968;2023-03-23T13:35:51;11.32;;;3.88;;
9860;SDS011;4969;52.304;4.968;2023-03-23T13:38:19;8.43;;;3.08;;
9860;SDS011;4969;52.304;4.968;2023-03-23T13:40:49;9.82;;;3.83;;
9860;SDS011;4969;52.304;4.968;2023-03-23T13:43:27;9.25;;;3.40;;
9860;SDS011;4969;52.304;4.968;2023-03-23T13:45:55;10.88;;;3.72;;
9860;SDS011;4969;52.304;4.968;2023-03-23T13:48:42;10.30;;;3.53;;
9860;SDS011;4969;52.304;4.968;2023-03-23T13:54:13;11.82;;;5.75;;
9860;SDS011;4969;52.304;4.968;2023-03-23T13:56:47;15.63;;;6.05;;
9860;SDS011;4969;52.304;4.968;2023-03-23T13:59:30;13.73;;;4.18;;
9860;SDS011;4969;52.304;4.968;2023-03-23T14:07:57;12.00;;;4.03;;
9860;SDS011;4969;52.304;4.968;2023-03-23T14:10:31;13.73;;;5.60;;
9860;SDS011;4969;52.304;4.968;2023-03-23T14:12:59;14.00;;;4.78;;
9860;SDS011;4969;52.304;4.968;2023-03-23T14:15:29;14.90;;;5.28;;
9860;SDS011;4969;52.304;4.968;2023-03-23T14:17:56;9.82;;;4.32;;
9860;SDS011;4969;52.304;4.968;2023-03-23T14:20:29;16.60;;;5.13;;
9860;SDS011;4969;52.304;4.968;2023-03-23T14:22:58;13.73;;;4.40;;
9860;SDS011;4969;52.304;4.968;2023-03-23T14:25:26;11.50;;;4.32;;
9860;SDS011;4969;52.304;4.968;2023-03-23T14:27:55;13.73;;;4.63;;
9860;SDS011;4969;52.304;4.968;2023-03-23T14:30:22;15.55;;;4.35;;
9860;SDS011;4969;52.304;4.968;2023-03-23T14:32:51;10.93;;;3.90;;
9860;SDS011;4969;52.304;4.968;2023-03-23T14:35:22;12.60;;;4.80;;
9860;SDS011;4969;52.304;4.968;2023-03-23T14:37:53;10.65;;;3.45;;
9860;SDS011;4969;52.304;4.968;2023-03-23T14:40:20;10.32;;;4.05;;
9860;SDS011;4969;52.304;4.968;2023-03-23T14:42:47;11.90;;;3.50;;
9860;SDS011;4969;52.304;4.968;2023-03-23T14:45:17;14.30;;;4.28;;
9860;SDS011;4969;52.304;4.968;2023-03-23T14:47:45;9.90;;;3.83;;
9860;SDS011;4969;52.304;4.968;2023-03-23T14:50:25;12.60;;;3.83;;
9860;SDS011;4969;52.304;4.968;2023-03-23T14:52:56;10.13;;;3.63;;
9860;SDS011;4969;52.304;4.968;2023-03-23T14:55:26;11.52;;;3.75;;
9860;SDS011;4969;52.304;4.968;2023-03-23T14:57:56;15.63;;;4.55;;
9860;SDS011;4969;52.304;4.968;2023-03-23T15:00:33;12.63;;;4.40;;
9860;SDS011;4969;52.304;4.968;2023-03-23T15:03:04;13.70;;;3.97;;
9860;SDS011;4969;52.304;4.968;2023-03-23T15:05:37;10.48;;;3.72;;
9860;SDS011;4969;52.304;4.968;2023-03-23T15:08:12;11.27;;;4.03;;
9860;SDS011;4969;52.304;4.968;2023-03-23T15:10:40;13.27;;;3.88;;
9860;SDS011;4969;52.304;4.968;2023-03-23T15:13:09;13.02;;;4.38;;
9860;SDS011;4969;52.304;4.968;2023-03-23T15:15:38;12.70;;;4.03;;
9860;SDS011;4969;52.304;4.968;2023-03-23T15:18:05;9.68;;;3.60;;
9860;SDS011;4969;52.304;4.968;2023-03-23T15:20:57;12.85;;;4.80;;
9860;SDS011;4969;52.304;4.968;2023-03-23T15:23:26;12.15;;;4.30;;
9860;SDS011;4969;52.304;4.968;2023-03-23T15:25:55;12.63;;;4.13;;
9860;SDS011;4969;52.304;4.968;2023-03-23T15:28:27;15.57;;;4.28;;
9860;SDS011;4969;52.304;4.968;2023-03-23T15:30:57;13.18;;;3.92;;
9860;SDS011;4969;52.304;4.968;2023-03-23T15:33:26;10.18;;;4.85;;
9860;SDS011;4969;52.304;4.968;2023-03-23T15:35:54;13.05;;;5.57;;
9860;SDS011;4969;52.304;4.968;2023-03-23T15:38:24;10.70;;;4.72;;
9860;SDS011;4969;52.304;4.968;2023-03-23T15:40:54;12.93;;;4.93;;